createdAt,value
2022-12-25T00:01:47.760Z,6.20
2022-12-25T00:06:49.266Z,6.20
2022-12-25T00:11:50.771Z,6.20
2022-12-25T00:16:52.396Z,6.30
2022-12-25T00:21:53.865Z,6.30
2022-12-25T00:26:55.505Z,6.30
2022-12-25T00:31:57.220Z,6.30
2022-12-25T00:36:58.789Z,6.20
2022-12-25T00:42:00.328Z,6.20
2022-12-25T00:47:02.029Z,6.10
2022-12-25T00:52:03.589Z,6.00
2022-12-25T00:57:05.085Z,5.90
2022-12-25T01:02:06.657Z,5.80
2022-12-25T01:07:08.398Z,5.70
2022-12-25T01:12:09.869Z,5.60
2022-12-25T01:17:11.338Z,5.60
2022-12-25T01:22:13.034Z,5.50
2022-12-25T01:27:14.540Z,5.50
2022-12-25T01:32:16.027Z,5.40
2022-12-25T01:37:17.526Z,5.40
2022-12-25T01:42:19.045Z,5.40
2022-12-25T01:47:20.492Z,5.50
2022-12-25T01:52:24.270Z,5.60
2022-12-25T01:57:26.135Z,5.70
2022-12-25T02:02:27.799Z,5.70
2022-12-25T02:07:29.513Z,5.80
2022-12-25T02:12:31.034Z,5.80
2022-12-25T02:17:32.665Z,5.90
2022-12-25T02:22:34.328Z,5.90
2022-12-25T02:27:35.805Z,5.90
2022-12-25T02:32:37.281Z,5.80
2022-12-25T02:37:41.364Z,5.80
2022-12-25T02:42:42.890Z,5.70
2022-12-25T02:47:44.533Z,5.70
2022-12-25T02:52:46.061Z,5.60
2022-12-25T02:57:48.115Z,5.50
2022-12-25T03:02:49.593Z,5.50
2022-12-25T03:07:51.110Z,5.40
2022-12-25T03:12:52.616Z,5.30
2022-12-25T03:17:54.159Z,5.20
2022-12-25T03:22:55.799Z,5.10
2022-12-25T03:27:57.316Z,5.10
2022-12-25T03:32:58.914Z,5.00
2022-12-25T03:38:00.462Z,4.80
2022-12-25T03:43:01.949Z,4.80
2022-12-25T03:48:03.432Z,4.70
2022-12-25T03:53:04.913Z,4.60
2022-12-25T03:58:06.384Z,4.50
2022-12-25T04:03:07.918Z,4.40
2022-12-25T04:08:09.391Z,4.30
2022-12-25T04:13:10.870Z,4.30
2022-12-25T04:18:12.376Z,4.30
2022-12-25T04:23:13.798Z,4.20
2022-12-25T04:28:15.268Z,4.20
2022-12-25T04:33:16.799Z,4.10
2022-12-25T04:38:18.430Z,3.90
2022-12-25T04:43:20.056Z,3.80
2022-12-25T04:48:21.557Z,3.70
2022-12-25T04:53:23.232Z,3.60
2022-12-25T04:58:24.751Z,3.40
2022-12-25T05:03:26.285Z,3.40
2022-12-25T05:08:27.806Z,3.40
2022-12-25T05:13:29.432Z,3.50
2022-12-25T05:18:30.974Z,3.50
2022-12-25T05:23:32.429Z,3.50
2022-12-25T05:28:33.953Z,3.50
2022-12-25T05:33:35.473Z,3.50
2022-12-25T05:38:36.975Z,3.50
2022-12-25T05:43:38.446Z,3.60
2022-12-25T05:48:39.948Z,3.70
2022-12-25T05:53:41.420Z,3.70
2022-12-25T05:58:42.913Z,3.70
2022-12-25T06:03:44.507Z,3.60
2022-12-25T06:08:46.060Z,3.60
2022-12-25T06:13:47.681Z,3.50
2022-12-25T06:18:49.178Z,3.50
2022-12-25T06:23:50.772Z,3.40
2022-12-25T06:28:52.323Z,3.30
2022-12-25T06:33:53.857Z,3.30
2022-12-25T06:38:55.371Z,3.20
2022-12-25T06:43:56.896Z,3.10
2022-12-25T06:48:58.407Z,3.00
2022-12-25T06:54:00.043Z,3.00
2022-12-25T06:59:01.542Z,2.90
2022-12-25T07:04:03.053Z,2.90
2022-12-25T07:09:04.522Z,2.80
2022-12-25T07:14:05.999Z,2.80
2022-12-25T07:19:07.469Z,2.80
2022-12-25T07:24:09.093Z,2.80
2022-12-25T07:29:10.729Z,2.90
2022-12-25T07:34:12.372Z,2.90
2022-12-25T07:39:13.888Z,3.00
2022-12-25T07:44:15.559Z,3.10
2022-12-25T07:49:17.230Z,3.20
2022-12-25T07:54:18.715Z,3.40
2022-12-25T07:59:20.131Z,3.60
2022-12-25T08:04:21.811Z,3.70
2022-12-25T08:09:23.397Z,3.90
2022-12-25T08:14:24.916Z,4.10
2022-12-25T08:19:26.383Z,4.30
2022-12-25T08:24:28.041Z,4.60
2022-12-25T08:29:29.675Z,5.00
2022-12-25T08:34:31.203Z,5.20
2022-12-25T08:39:32.718Z,5.20
2022-12-25T08:44:34.224Z,5.50
2022-12-25T08:49:35.866Z,5.80
2022-12-25T08:54:37.550Z,5.90
2022-12-25T08:59:39.071Z,6.00
2022-12-25T09:04:40.569Z,6.10
2022-12-25T09:09:42.063Z,6.30
2022-12-25T09:14:43.598Z,6.40
2022-12-25T09:19:45.107Z,6.50
2022-12-25T09:24:46.557Z,6.60
2022-12-25T09:29:48.189Z,6.80
2022-12-25T09:34:50.177Z,7.10
2022-12-25T09:39:51.822Z,7.30
2022-12-25T09:44:53.465Z,7.60
2022-12-25T09:49:54.994Z,7.70
2022-12-25T09:54:56.519Z,8.00
2022-12-25T09:59:58.038Z,8.20
2022-12-25T10:04:59.511Z,8.30
2022-12-25T10:10:00.980Z,8.40
2022-12-25T10:15:02.512Z,8.80
2022-12-25T10:20:04.022Z,9.00
2022-12-25T10:25:05.495Z,9.30
2022-12-25T10:30:07.175Z,9.50
2022-12-25T10:35:08.684Z,9.50
2022-12-25T10:40:10.331Z,9.60
2022-12-25T10:45:11.921Z,9.70
2022-12-25T10:50:13.438Z,9.80
2022-12-25T10:55:15.000Z,9.90
2022-12-25T11:00:16.498Z,10.00
2022-12-25T11:05:18.072Z,10.00
2022-12-25T11:10:19.586Z,10.10
2022-12-25T11:15:21.110Z,10.20
2022-12-25T11:20:22.777Z,10.30
2022-12-25T11:25:24.451Z,10.30
2022-12-25T11:30:25.888Z,10.30
2022-12-25T11:35:27.386Z,10.20
2022-12-25T11:40:28.867Z,10.30
2022-12-25T11:45:30.378Z,10.30
2022-12-25T11:50:31.892Z,10.30
2022-12-25T11:55:33.377Z,10.30
2022-12-25T12:00:34.829Z,10.40
2022-12-25T12:05:36.539Z,10.50
2022-12-25T12:10:38.009Z,10.50
2022-12-25T12:15:39.511Z,10.50
2022-12-25T12:20:41.577Z,10.50
2022-12-25T12:25:43.049Z,10.50
2022-12-25T12:30:44.525Z,10.50
2022-12-25T12:35:46.138Z,10.60
2022-12-25T12:40:47.835Z,10.60
2022-12-25T12:45:49.446Z,10.60
2022-12-25T12:50:50.965Z,10.60
2022-12-25T12:55:52.539Z,10.60
2022-12-25T13:00:54.296Z,10.50
2022-12-25T13:05:55.845Z,10.50
2022-12-25T13:10:57.640Z,10.50
2022-12-25T13:15:59.426Z,10.50
2022-12-25T13:21:00.863Z,10.50
2022-12-25T13:26:02.573Z,10.40
2022-12-25T13:31:04.025Z,10.10
2022-12-25T13:36:05.450Z,10.00
2022-12-25T13:41:06.884Z,9.80
2022-12-25T13:46:08.396Z,9.60
2022-12-25T13:51:09.957Z,9.50
2022-12-25T13:56:11.769Z,9.40
2022-12-25T14:01:13.536Z,9.30
2022-12-25T14:06:15.171Z,9.30
2022-12-25T14:11:16.747Z,9.20
2022-12-25T14:16:18.439Z,9.00
2022-12-25T14:21:19.890Z,8.90
2022-12-25T14:26:21.355Z,8.80
2022-12-25T14:31:22.942Z,8.70
2022-12-25T14:36:24.601Z,8.60
2022-12-25T14:41:26.447Z,8.50
2022-12-25T14:46:28.190Z,8.40
2022-12-25T14:51:29.904Z,8.40
2022-12-25T14:56:31.558Z,8.30
2022-12-25T15:01:33.218Z,8.20
2022-12-25T15:06:34.797Z,8.10
2022-12-25T15:11:36.319Z,8.10
2022-12-25T15:16:37.992Z,8.00
2022-12-25T15:21:39.601Z,8.00
2022-12-25T15:26:41.812Z,7.90
2022-12-25T15:31:43.343Z,7.90
2022-12-25T15:36:44.805Z,7.80
2022-12-25T15:41:46.282Z,7.80
2022-12-25T15:46:47.868Z,7.70
2022-12-25T15:51:49.336Z,7.70
2022-12-25T15:56:50.833Z,7.60
2022-12-25T16:01:52.650Z,7.60
2022-12-25T16:06:54.208Z,7.50
2022-12-25T16:11:55.700Z,7.50
2022-12-25T16:16:57.148Z,7.40
2022-12-25T16:21:58.575Z,7.40
2022-12-25T16:27:00.020Z,7.40
2022-12-25T16:32:01.451Z,7.40
2022-12-25T16:37:02.880Z,7.30
2022-12-25T16:42:04.316Z,7.30
2022-12-25T16:47:05.767Z,7.20
2022-12-25T16:52:07.179Z,7.20
2022-12-25T16:57:08.606Z,7.20
2022-12-25T17:02:10.185Z,7.10
2022-12-25T17:07:11.671Z,7.10
2022-12-25T17:12:13.134Z,7.10
2022-12-25T17:17:14.606Z,7.10
2022-12-25T17:22:16.038Z,7.00
2022-12-25T17:27:17.471Z,7.00
2022-12-25T17:32:18.888Z,6.90
2022-12-25T17:37:20.349Z,6.90
2022-12-25T17:42:21.826Z,6.80
2022-12-25T17:47:23.266Z,6.90
2022-12-25T17:52:24.733Z,6.90
2022-12-25T17:57:26.201Z,6.90
2022-12-25T18:02:27.765Z,6.90
2022-12-25T18:07:29.376Z,6.90
2022-12-25T18:12:30.817Z,6.80
2022-12-25T18:17:32.244Z,6.80
2022-12-25T18:22:33.760Z,6.80
2022-12-25T18:27:35.266Z,6.80
2022-12-25T18:32:36.736Z,6.80
2022-12-25T18:37:40.176Z,6.80
2022-12-25T18:42:41.912Z,6.80
2022-12-25T18:47:43.595Z,6.80
2022-12-25T18:52:47.363Z,6.80
2022-12-25T18:57:52.765Z,6.80
2022-12-25T19:02:54.316Z,6.90
2022-12-25T19:07:55.878Z,6.90
2022-12-25T19:12:57.325Z,7.00
2022-12-25T19:17:58.763Z,7.00
2022-12-25T19:23:00.235Z,6.90
2022-12-25T19:28:01.706Z,6.90
2022-12-25T19:33:03.434Z,6.90
2022-12-25T19:38:04.968Z,6.80
2022-12-25T19:43:06.442Z,6.80
2022-12-25T19:48:07.878Z,6.70
2022-12-25T19:53:09.373Z,6.60
2022-12-25T19:58:10.814Z,6.60
2022-12-25T20:03:12.346Z,6.50
2022-12-25T20:08:13.839Z,6.50
2022-12-25T20:13:15.279Z,6.40
2022-12-25T20:18:16.772Z,6.50
2022-12-25T20:23:18.200Z,6.50
2022-12-25T20:28:19.662Z,6.50
2022-12-25T20:33:21.164Z,6.50
2022-12-25T20:38:22.643Z,6.50
2022-12-25T20:43:24.157Z,6.50
2022-12-25T20:48:25.657Z,6.50
2022-12-25T20:53:27.114Z,6.40
2022-12-25T20:58:28.546Z,6.40
2022-12-25T21:03:30.061Z,6.40
2022-12-25T21:08:31.624Z,6.50
2022-12-25T21:13:33.079Z,6.50
2022-12-25T21:18:34.506Z,6.50
2022-12-25T21:23:35.987Z,6.50
2022-12-25T21:28:37.448Z,6.60
2022-12-25T21:33:38.913Z,6.60
2022-12-25T21:38:40.381Z,6.70
2022-12-25T21:43:41.799Z,6.70
2022-12-25T21:48:43.303Z,6.70
2022-12-25T21:53:44.746Z,6.60
2022-12-25T21:58:46.191Z,6.60
2022-12-25T22:03:47.665Z,6.60
2022-12-25T22:08:49.098Z,6.60
2022-12-25T22:13:50.731Z,6.60
2022-12-25T22:18:52.219Z,6.50
2022-12-25T22:23:53.843Z,6.50
2022-12-25T22:28:55.336Z,6.50
2022-12-25T22:33:56.973Z,6.50
2022-12-25T22:38:58.443Z,6.50
2022-12-25T22:44:17.151Z,6.50
2022-12-25T22:49:19.451Z,6.50
2022-12-25T22:54:20.918Z,6.50
2022-12-25T22:59:22.425Z,6.50
2022-12-25T23:04:23.909Z,6.50
2022-12-25T23:09:25.435Z,6.50
2022-12-25T23:14:26.944Z,6.60
2022-12-25T23:19:28.381Z,6.60
2022-12-25T23:24:29.875Z,6.70
2022-12-25T23:29:31.534Z,6.70
2022-12-25T23:34:33.042Z,6.70
2022-12-25T23:39:34.714Z,6.70
2022-12-25T23:44:36.182Z,6.70
2022-12-25T23:49:37.609Z,6.70
2022-12-25T23:54:39.109Z,6.70
2022-12-25T23:59:40.766Z,6.80
